Time;durP1;ratioP1;P1;durP2;ratioP2;P2;SDS_P1;SDS_P2;PMS_P1;PMS_P2;Temp;Humidity;BMP_temperature;BMP_pressure;BME280_temperature;BME280_humidity;BME280_pressure;Samples;Min_cycle;Max_cycle;Signal;HPM_P1;HPM_P2
2023/01/18 00:00:09;;;;;;;17.30;8.30;;;;;;;;;;5054338;28;20037;-69
2023/01/18 00:02:36;;;;;;;18.43;7.90;;;;;;;;;;5053216;28;20021;-69
2023/01/18 00:05:02;;;;;;;15.23;7.25;;;;;;;;;;5054253;28;20458;-69
2023/01/18 00:07:28;;;;;;;18.63;8.23;;;;;;;;;;5054028;28;20111;-69
2023/01/18 00:09:55;;;;;;;21.70;7.63;;;;;;;;;;5054201;28;20459;-69
2023/01/18 00:12:20;;;;;;;14.38;6.47;;;;;;;;;;5053324;28;20457;-69
2023/01/18 00:14:46;;;;;;;13.93;6.75;;;;;;;;;;5054139;28;20035;-69
2023/01/18 00:17:11;;;;;;;15.52;6.70;;;;;;;;;;5053969;28;20041;-69
2023/01/18 00:19:37;;;;;;;16.13;7.53;;;;;;;;;;5053987;28;20167;-69
2023/01/18 00:22:02;;;;;;;22.48;10.30;;;;;;;;;;5054089;28;20085;-69
2023/01/18 00:24:27;;;;;;;40.30;14.38;;;;;;;;;;5053977;28;20021;-69
2023/01/18 00:26:53;;;;;;;38.55;15.55;;;;;;;;;;5053778;28;20025;-70
2023/01/18 00:29:19;;;;;;;49.40;16.75;;;;;;;;;;5053814;28;20025;-70
2023/01/18 00:31:44;;;;;;;52.72;17.02;;;;;;;;;;5053731;28;20039;-70
2023/01/18 00:34:10;;;;;;;40.45;14.60;;;;;;;;;;5053780;28;20037;-70
2023/01/18 00:36:36;;;;;;;38.22;14.60;;;;;;;;;;5053731;28;20057;-70
2023/01/18 00:39:02;;;;;;;38.88;14.55;;;;;;;;;;5053242;28;20033;-70
2023/01/18 00:41:27;;;;;;;37.83;14.57;;;;;;;;;;5053194;28;20044;-69
2023/01/18 00:43:53;;;;;;;36.13;15.70;;;;;;;;;;5053537;28;20083;-70
2023/01/18 00:46:28;;;;;;;41.83;15.57;;;;;;;;;;5053535;28;20067;-70
2023/01/18 00:48:54;;;;;;;37.15;14.60;;;;;;;;;;5053407;28;20494;-69
2023/01/18 00:51:23;;;;;;;44.10;14.80;;;;;;;;;;5053467;28;20036;-70
2023/01/18 00:53:49;;;;;;;38.63;14.57;;;;;;;;;;5053261;28;20071;-69
2023/01/18 00:56:18;;;;;;;43.45;15.90;;;;;;;;;;5053041;28;20036;-69
2023/01/18 00:58:43;;;;;;;50.42;17.55;;;;;;;;;;5053025;28;20530;-70
2023/01/18 01:01:10;;;;;;;48.33;20.98;;;;;;;;;;5053222;28;20108;-69
2023/01/18 01:06:43;;;;;;;69.47;23.10;;;;;;;;;;5053504;28;20074;-69
2023/01/18 01:09:14;;;;;;;64.88;20.42;;;;;;;;;;5053068;28;20052;-69
2023/01/18 01:12:31;;;;;;;58.83;19.88;;;;;;;;;;5052568;28;20058;-69
2023/01/18 01:28:04;;;;;;;49.08;18.88;;;;;;;;;;5052827;28;20052;-70
2023/01/18 01:30:30;;;;;;;48.15;17.75;;;;;;;;;;5052743;28;20029;-70
2023/01/18 01:32:55;;;;;;;58.20;18.00;;;;;;;;;;5052723;28;20025;-70
2023/01/18 01:37:51;;;;;;;41.00;17.10;;;;;;;;;;5003488;28;20046;-70
2023/01/18 01:40:17;;;;;;;38.25;15.88;;;;;;;;;;5004054;28;20030;-70
2023/01/18 01:42:42;;;;;;;35.83;15.23;;;;;;;;;;5002264;28;20022;-69
2023/01/18 01:45:08;;;;;;;39.58;15.98;;;;;;;;;;5002235;28;20462;-70
2023/01/18 01:47:38;;;;;;;42.58;15.98;;;;;;;;;;4993136;28;20034;-70
2023/01/18 01:50:15;;;;;;;37.97;17.25;;;;;;;;;;4992907;28;20022;-70
2023/01/18 01:52:42;;;;;;;40.30;17.13;;;;;;;;;;4993920;28;20098;-70
2023/01/18 01:55:30;;;;;;;40.00;16.50;;;;;;;;;;5012916;28;20104;-70
2023/01/18 01:58:04;;;;;;;43.78;18.35;;;;;;;;;;5012830;28;20026;-70
2023/01/18 02:00:29;;;;;;;49.67;19.60;;;;;;;;;;5012813;28;20582;-70
2023/01/18 02:02:59;;;;;;;51.58;17.77;;;;;;;;;;5012646;28;20033;-70
2023/01/18 02:05:25;;;;;;;48.88;16.83;;;;;;;;;;5012352;28;20036;-70
2023/01/18 02:07:52;;;;;;;42.88;16.63;;;;;;;;;;5011406;28;20389;-70
2023/01/18 02:10:17;;;;;;;35.67;15.20;;;;;;;;;;5012256;28;20386;-70
2023/01/18 02:12:45;;;;;;;33.80;13.27;;;;;;;;;;5012533;28;20026;-70
2023/01/18 02:15:11;;;;;;;29.63;12.23;;;;;;;;;;5012663;28;20030;-70
2023/01/18 02:17:45;;;;;;;33.42;12.98;;;;;;;;;;5012347;28;20092;-70
2023/01/18 02:20:26;;;;;;;23.02;10.52;;;;;;;;;;5012306;28;20049;-70
2023/01/18 02:23:13;;;;;;;15.13;8.10;;;;;;;;;;5012553;28;20050;-70
2023/01/18 02:25:56;;;;;;;17.13;7.82;;;;;;;;;;5012424;28;20036;-70
2023/01/18 02:28:34;;;;;;;26.30;10.52;;;;;;;;;;5012511;28;20040;-70
2023/01/18 02:31:16;;;;;;;29.70;11.63;;;;;;;;;;5012396;28;20552;-70
2023/01/18 02:33:51;;;;;;;26.90;11.30;;;;;;;;;;5012301;28;20022;-70
2023/01/18 02:36:30;;;;;;;32.92;11.73;;;;;;;;;;5012051;28;20077;-70
2023/01/18 02:39:02;;;;;;;28.08;11.00;;;;;;;;;;5012359;28;20065;-70
2023/01/18 02:47:25;;;;;;;24.13;9.35;;;;;;;;;;5012311;28;20032;-70
2023/01/18 02:49:50;;;;;;;26.95;10.40;;;;;;;;;;5012253;28;20395;-70
2023/01/18 02:52:42;;;;;;;18.52;9.80;;;;;;;;;;5012316;28;20030;-70
2023/01/18 02:55:16;;;;;;;24.08;9.13;;;;;;;;;;5012283;28;20021;-69
2023/01/18 02:57:42;;;;;;;23.38;9.93;;;;;;;;;;5012367;28;20025;-70
2023/01/18 03:00:10;;;;;;;30.25;11.95;;;;;;;;;;5012145;28;20021;-69
2023/01/18 03:02:39;;;;;;;29.70;13.05;;;;;;;;;;5013234;28;20371;-70
2023/01/18 03:05:08;;;;;;;32.47;13.93;;;;;;;;;;5015851;28;20459;-70
2023/01/18 03:07:41;;;;;;;36.03;13.35;;;;;;;;;;5015740;28;20558;-70
2023/01/18 03:10:09;;;;;;;29.23;14.25;;;;;;;;;;5015567;28;20038;-70
2023/01/18 03:13:02;;;;;;;30.98;14.35;;;;;;;;;;5015671;28;20108;-69
2023/01/18 03:15:34;;;;;;;27.90;12.88;;;;;;;;;;5015618;28;20026;-70
2023/01/18 03:18:09;;;;;;;28.88;12.73;;;;;;;;;;5015340;28;20026;-70
2023/01/18 03:20:41;;;;;;;32.85;13.60;;;;;;;;;;5015626;28;20022;-70
2023/01/18 03:26:03;;;;;;;29.58;13.80;;;;;;;;;;5015652;28;20033;-70
2023/01/18 03:34:31;;;;;;;27.13;12.10;;;;;;;;;;5015379;28;20065;-69
2023/01/18 03:37:00;;;;;;;25.00;11.48;;;;;;;;;;5020707;28;20041;-69
2023/01/18 03:39:32;;;;;;;26.85;12.75;;;;;;;;;;5034917;28;20425;-71
2023/01/18 03:42:14;;;;;;;28.58;11.52;;;;;;;;;;5034832;28;20033;-69
2023/01/18 03:44:54;;;;;;;27.80;12.45;;;;;;;;;;5034604;28;20072;-70
2023/01/18 03:47:20;;;;;;;24.75;11.23;;;;;;;;;;5034535;28;20029;-69
2023/01/18 03:49:46;;;;;;;30.45;12.48;;;;;;;;;;5034747;28;20160;-70
2023/01/18 03:52:42;;;;;;;24.17;12.20;;;;;;;;;;5034768;28;20100;-69
2023/01/18 03:55:15;;;;;;;25.58;12.90;;;;;;;;;;5033668;28;20048;-70
2023/01/18 03:57:54;;;;;;;23.98;11.15;;;;;;;;;;5034588;28;20026;-70
2023/01/18 04:00:20;;;;;;;28.15;11.90;;;;;;;;;;5034344;28;20116;-70
2023/01/18 04:02:47;;;;;;;33.97;12.40;;;;;;;;;;5034203;28;20116;-69
2023/01/18 04:05:13;;;;;;;25.70;11.18;;;;;;;;;;5034448;28;20047;-69
2023/01/18 04:07:39;;;;;;;27.30;11.32;;;;;;;;;;5034318;28;20108;-70
2023/01/18 04:10:04;;;;;;;25.63;11.43;;;;;;;;;;5034355;28;20056;-70
2023/01/18 04:12:30;;;;;;;21.83;10.88;;;;;;;;;;5034395;28;20462;-70
2023/01/18 04:14:56;;;;;;;25.52;11.77;;;;;;;;;;5033218;28;20113;-69
2023/01/18 04:17:21;;;;;;;26.92;12.38;;;;;;;;;;5033927;28;20029;-69
2023/01/18 04:19:46;;;;;;;20.50;10.45;;;;;;;;;;5034117;28;20060;-70
2023/01/18 04:22:12;;;;;;;26.50;10.35;;;;;;;;;;5032880;28;20048;-69
2023/01/18 04:24:38;;;;;;;22.10;10.88;;;;;;;;;;5034012;28;20021;-69
2023/01/18 04:27:03;;;;;;;28.02;11.32;;;;;;;;;;5033913;28;20147;-70
2023/01/18 04:29:29;;;;;;;23.38;10.70;;;;;;;;;;5033980;28;20037;-69
2023/01/18 04:31:54;;;;;;;23.23;11.48;;;;;;;;;;5034046;28;20032;-69
2023/01/18 04:34:23;;;;;;;29.02;11.98;;;;;;;;;;5033877;28;20479;-70
2023/01/18 04:36:49;;;;;;;26.65;12.57;;;;;;;;;;5033235;28;20046;-70
2023/01/18 04:39:15;;;;;;;24.17;11.88;;;;;;;;;;5033816;28;20036;-70
2023/01/18 04:41:41;;;;;;;26.98;11.75;;;;;;;;;;5033693;28;20031;-69
2023/01/18 04:44:06;;;;;;;31.50;12.80;;;;;;;;;;5033468;28;20040;-69
2023/01/18 04:46:32;;;;;;;27.80;12.15;;;;;;;;;;5033690;28;20018;-69
2023/01/18 04:48:57;;;;;;;23.17;11.10;;;;;;;;;;5033500;28;20120;-69
2023/01/18 04:51:23;;;;;;;24.85;11.30;;;;;;;;;;5033742;28;20036;-70
2023/01/18 04:53:49;;;;;;;24.77;11.10;;;;;;;;;;5033549;28;20029;-70
2023/01/18 04:56:15;;;;;;;23.98;10.60;;;;;;;;;;5033339;28;20025;-69
2023/01/18 04:58:41;;;;;;;22.05;10.45;;;;;;;;;;5033112;28;20057;-69
2023/01/18 05:01:10;;;;;;;18.13;10.23;;;;;;;;;;5033335;28;20134;-69
2023/01/18 05:03:37;;;;;;;33.13;11.73;;;;;;;;;;5033318;28;20132;-69
2023/01/18 05:06:07;;;;;;;24.25;10.35;;;;;;;;;;5033226;28;20474;-69
2023/01/18 05:08:33;;;;;;;24.75;11.32;;;;;;;;;;5033349;28;20022;-69
2023/01/18 05:11:03;;;;;;;24.23;10.85;;;;;;;;;;5033072;28;20097;-69
2023/01/18 05:13:29;;;;;;;22.15;10.73;;;;;;;;;;5032794;28;20022;-70
2023/01/18 05:15:56;;;;;;;24.17;11.52;;;;;;;;;;5033094;28;20080;-69
2023/01/18 05:18:21;;;;;;;25.60;10.85;;;;;;;;;;5032938;28;20035;-69
2023/01/18 05:20:47;;;;;;;22.67;11.55;;;;;;;;;;5032790;28;20537;-70
2023/01/18 05:23:13;;;;;;;23.50;10.52;;;;;;;;;;5033141;28;20389;-69
2023/01/18 05:25:38;;;;;;;28.60;11.15;;;;;;;;;;5032713;28;20029;-69
2023/01/18 05:28:05;;;;;;;29.73;11.57;;;;;;;;;;5032505;28;20101;-69
2023/01/18 05:30:31;;;;;;;30.25;13.38;;;;;;;;;;5032923;28;20477;-69
2023/01/18 05:32:56;;;;;;;27.67;13.25;;;;;;;;;;5032703;28;20103;-69
2023/01/18 05:35:22;;;;;;;44.47;21.88;;;;;;;;;;5032861;28;20488;-69
2023/01/18 05:37:47;;;;;;;40.50;18.27;;;;;;;;;;5032539;28;20142;-70
2023/01/18 05:40:13;;;;;;;42.67;19.58;;;;;;;;;;5032730;28;20029;-69
2023/01/18 05:42:39;;;;;;;44.30;19.58;;;;;;;;;;5032077;28;20029;-69
2023/01/18 05:45:05;;;;;;;36.22;17.02;;;;;;;;;;5032636;28;20025;-69
2023/01/18 05:47:31;;;;;;;28.17;14.70;;;;;;;;;;5032469;28;20061;-70
2023/01/18 05:49:56;;;;;;;33.55;15.48;;;;;;;;;;5032643;28;20066;-69
2023/01/18 05:52:22;;;;;;;35.83;15.88;;;;;;;;;;5032574;28;20419;-69
2023/01/18 05:54:47;;;;;;;35.38;16.67;;;;;;;;;;5031067;28;20025;-69
2023/01/18 05:57:13;;;;;;;49.72;19.45;;;;;;;;;;5032275;28;20060;-69
2023/01/18 05:59:38;;;;;;;67.20;22.25;;;;;;;;;;5032307;28;20394;-69
2023/01/18 06:02:04;;;;;;;42.75;19.45;;;;;;;;;;5032129;28;20030;-69
2023/01/18 06:04:29;;;;;;;41.20;18.42;;;;;;;;;;5032331;28;20045;-69
2023/01/18 06:06:55;;;;;;;52.20;21.48;;;;;;;;;;5032084;28;20032;-69
2023/01/18 06:09:20;;;;;;;51.13;20.50;;;;;;;;;;5030818;28;20026;-69
2023/01/18 06:11:46;;;;;;;52.05;20.67;;;;;;;;;;5032083;28;20044;-69
2023/01/18 06:14:11;;;;;;;47.75;19.55;;;;;;;;;;5032166;28;20021;-69
2023/01/18 06:16:36;;;;;;;45.63;19.13;;;;;;;;;;5032151;28;20025;-69
2023/01/18 06:19:02;;;;;;;50.60;19.27;;;;;;;;;;5032058;28;20382;-69
2023/01/18 06:21:27;;;;;;;42.40;19.20;;;;;;;;;;5031825;28;20037;-69
2023/01/18 06:23:53;;;;;;;41.75;18.33;;;;;;;;;;5032068;28;20029;-69
2023/01/18 06:26:18;;;;;;;50.22;19.20;;;;;;;;;;5031599;28;20029;-69
2023/01/18 06:28:44;;;;;;;51.55;20.23;;;;;;;;;;5031708;28;20025;-69
2023/01/18 06:31:10;;;;;;;56.35;21.52;;;;;;;;;;5032041;28;20455;-69
2023/01/18 06:33:36;;;;;;;60.10;22.55;;;;;;;;;;5032157;28;20044;-69
2023/01/18 06:36:02;;;;;;;54.65;21.77;;;;;;;;;;5031950;28;20490;-69
2023/01/18 06:38:28;;;;;;;61.17;23.15;;;;;;;;;;5034639;28;20132;-69
2023/01/18 06:40:54;;;;;;;64.45;26.50;;;;;;;;;;5034295;28;20026;-69
2023/01/18 06:43:19;;;;;;;82.18;29.33;;;;;;;;;;5035723;28;20083;-69
2023/01/18 06:45:51;;;;;;;60.33;25.13;;;;;;;;;;5035748;28;20021;-69
2023/01/18 06:48:16;;;;;;;59.80;24.05;;;;;;;;;;5035718;28;20489;-69
2023/01/18 06:50:42;;;;;;;69.15;24.83;;;;;;;;;;5035554;28;20037;-69
2023/01/18 06:53:07;;;;;;;58.30;24.23;;;;;;;;;;5035690;28;20056;-69
2023/01/18 06:55:33;;;;;;;68.28;24.55;;;;;;;;;;5035412;28;20061;-69
2023/01/18 06:58:00;;;;;;;68.55;25.65;;;;;;;;;;5035709;28;20029;-69
2023/01/18 07:00:26;;;;;;;53.63;23.52;;;;;;;;;;5035460;28;20017;-69
2023/01/18 07:02:51;;;;;;;57.65;23.33;;;;;;;;;;5035426;28;20364;-69
2023/01/18 07:05:17;;;;;;;65.93;27.65;;;;;;;;;;5035329;28;20030;-69
2023/01/18 07:07:44;;;;;;;76.32;30.92;;;;;;;;;;5035406;28;20120;-69
2023/01/18 07:10:10;;;;;;;56.03;24.75;;;;;;;;;;5035202;28;20025;-69
2023/01/18 07:12:35;;;;;;;64.28;25.08;;;;;;;;;;5035213;28;20029;-69
2023/01/18 07:15:01;;;;;;;54.90;23.83;;;;;;;;;;5035227;28;20056;-69
2023/01/18 07:17:26;;;;;;;67.53;26.17;;;;;;;;;;5034965;28;20128;-69
2023/01/18 07:19:51;;;;;;;62.85;25.90;;;;;;;;;;5035422;28;20471;-69
2023/01/18 07:22:17;;;;;;;89.80;31.30;;;;;;;;;;5035141;28;20394;-69
2023/01/18 07:24:44;;;;;;;83.15;36.13;;;;;;;;;;5034839;28;20074;-69
2023/01/18 07:27:09;;;;;;;83.05;33.95;;;;;;;;;;5035210;28;20029;-69
2023/01/18 07:29:35;;;;;;;80.53;31.67;;;;;;;;;;5035126;28;20118;-69
2023/01/18 07:32:01;;;;;;;77.65;32.40;;;;;;;;;;5034870;28;20022;-69
2023/01/18 07:34:26;;;;;;;106.82;38.08;;;;;;;;;;5035076;28;20104;-69
2023/01/18 07:36:53;;;;;;;96.47;39.10;;;;;;;;;;5034515;28;20128;-69
2023/01/18 07:39:19;;;;;;;73.35;32.95;;;;;;;;;;5034679;28;20440;-69
2023/01/18 07:41:45;;;;;;;112.35;46.97;;;;;;;;;;5034680;28;20033;-69
2023/01/18 07:44:10;;;;;;;141.25;59.67;;;;;;;;;;5034929;28;20018;-69
2023/01/18 07:46:36;;;;;;;101.25;45.72;;;;;;;;;;5034741;28;20462;-69
2023/01/18 07:49:04;;;;;;;69.97;32.45;;;;;;;;;;5034836;28;20022;-69
2023/01/18 07:51:30;;;;;;;60.55;27.13;;;;;;;;;;5034746;28;20104;-69
2023/01/18 07:53:56;;;;;;;54.47;25.52;;;;;;;;;;5034620;28;20033;-69
2023/01/18 07:56:24;;;;;;;63.70;25.88;;;;;;;;;;5034610;28;20025;-69
2023/01/18 07:58:50;;;;;;;79.13;26.48;;;;;;;;;;5023675;28;20018;-70
2023/01/18 08:01:20;;;;;;;102.05;37.63;;;;;;;;;;5014948;28;20069;-69
2023/01/18 08:03:48;;;;;;;102.78;37.40;;;;;;;;;;5013760;28;20030;-70
2023/01/18 08:06:15;;;;;;;123.95;39.03;;;;;;;;;;5014478;28;20034;-69
2023/01/18 08:08:41;;;;;;;102.65;37.28;;;;;;;;;;5014362;28;20058;-69
2023/01/18 08:11:08;;;;;;;115.18;43.97;;;;;;;;;;5014704;28;20487;-70
2023/01/18 08:13:33;;;;;;;117.88;49.97;;;;;;;;;;5013234;28;20026;-69
2023/01/18 08:16:00;;;;;;;232.50;94.70;;;;;;;;;;5014457;28;20033;-69
2023/01/18 08:18:26;;;;;;;104.30;42.20;;;;;;;;;;5014493;28;20034;-69
2023/01/18 08:20:51;;;;;;;146.45;56.97;;;;;;;;;;5014388;28;20104;-69
2023/01/18 08:23:17;;;;;;;146.38;56.50;;;;;;;;;;5014197;28;20030;-69
2023/01/18 08:25:43;;;;;;;124.13;45.50;;;;;;;;;;5014505;28;20033;-69
2023/01/18 08:28:10;;;;;;;115.68;44.17;;;;;;;;;;5014181;28;20105;-69
2023/01/18 08:30:38;;;;;;;99.25;34.72;;;;;;;;;;5014260;28;20036;-69
2023/01/18 08:33:05;;;;;;;110.18;40.78;;;;;;;;;;5014303;28;20064;-69
2023/01/18 08:35:33;;;;;;;169.43;59.10;;;;;;;;;;5012717;28;20033;-69
2023/01/18 08:38:00;;;;;;;145.05;52.05;;;;;;;;;;5013777;28;20026;-69
2023/01/18 08:40:27;;;;;;;131.65;50.97;;;;;;;;;;5012658;28;20030;-70
2023/01/18 08:42:57;;;;;;;136.43;53.38;;;;;;;;;;5014006;28;20072;-69
2023/01/18 08:45:23;;;;;;;137.18;50.38;;;;;;;;;;5013917;28;20109;-69
2023/01/18 08:47:57;;;;;;;135.15;51.10;;;;;;;;;;5013747;28;20057;-69
2023/01/18 08:50:23;;;;;;;135.45;52.22;;;;;;;;;;5013959;28;20026;-70
2023/01/18 08:52:51;;;;;;;141.80;52.88;;;;;;;;;;5012269;28;20024;-70
2023/01/18 08:55:17;;;;;;;139.70;54.45;;;;;;;;;;5013820;28;20045;-68
2023/01/18 08:57:42;;;;;;;154.52;54.83;;;;;;;;;;5013839;28;20042;-68
2023/01/18 09:00:08;;;;;;;186.68;73.70;;;;;;;;;;5013133;28;20072;-68
2023/01/18 09:02:34;;;;;;;173.63;58.35;;;;;;;;;;5013716;28;20033;-69
2023/01/18 09:04:59;;;;;;;184.98;63.67;;;;;;;;;;5013256;28;20029;-68
2023/01/18 09:07:26;;;;;;;159.77;58.35;;;;;;;;;;5013598;28;20022;-68
2023/01/18 09:09:52;;;;;;;158.75;53.85;;;;;;;;;;5013606;28;20050;-68
2023/01/18 09:12:17;;;;;;;152.95;55.67;;;;;;;;;;5013315;28;20088;-68
2023/01/18 09:14:43;;;;;;;160.10;56.97;;;;;;;;;;5028423;28;20025;-68
2023/01/18 09:17:08;;;;;;;159.05;64.90;;;;;;;;;;5013435;28;20064;-68
2023/01/18 09:19:34;;;;;;;168.50;67.50;;;;;;;;;;5013180;28;20080;-68
2023/01/18 09:21:59;;;;;;;173.85;66.10;;;;;;;;;;5013096;28;20025;-68
2023/01/18 09:24:25;;;;;;;177.75;69.93;;;;;;;;;;5013189;28;20026;-68
2023/01/18 09:26:52;;;;;;;161.52;63.17;;;;;;;;;;5012897;28;20030;-68
2023/01/18 09:29:18;;;;;;;150.65;60.55;;;;;;;;;;5011967;28;20053;-68
2023/01/18 09:31:44;;;;;;;146.85;57.33;;;;;;;;;;5011952;28;20378;-68
2023/01/18 09:34:11;;;;;;;142.00;54.75;;;;;;;;;;5012891;28;20036;-68
2023/01/18 09:36:37;;;;;;;144.13;54.58;;;;;;;;;;5012562;28;20064;-68
2023/01/18 09:39:04;;;;;;;146.27;50.67;;;;;;;;;;5013069;28;20420;-68
2023/01/18 09:41:37;;;;;;;104.22;41.85;;;;;;;;;;5012871;28;20032;-68
2023/01/18 09:44:41;;;;;;;78.18;33.72;;;;;;;;;;5012190;28;20033;-68
2023/01/18 09:47:25;;;;;;;82.53;31.02;;;;;;;;;;5011022;28;20036;-69
2023/01/18 09:49:58;;;;;;;78.45;30.63;;;;;;;;;;5012666;28;20058;-68
2023/01/18 09:52:45;;;;;;;56.63;25.67;;;;;;;;;;5012662;28;20033;-68
2023/01/18 09:55:32;;;;;;;57.67;24.75;;;;;;;;;;5012214;28;20171;-68
2023/01/18 09:58:23;;;;;;;49.72;22.33;;;;;;;;;;5012529;28;20037;-68
2023/01/18 10:00:48;;;;;;;55.30;24.95;;;;;;;;;;5012093;28;20040;-69
2023/01/18 10:03:32;;;;;;;58.70;27.80;;;;;;;;;;5012218;28;20112;-69
2023/01/18 10:06:08;;;;;;;74.28;28.98;;;;;;;;;;5012401;28;20022;-68
2023/01/18 10:09:00;;;;;;;71.90;30.30;;;;;;;;;;5012457;28;20429;-68
2023/01/18 10:11:43;;;;;;;63.92;28.35;;;;;;;;;;5012637;28;20497;-68
2023/01/18 10:14:21;;;;;;;61.33;26.33;;;;;;;;;;5016556;28;20068;-68
2023/01/18 10:16:53;;;;;;;66.45;26.85;;;;;;;;;;5016450;28;20504;-68
2023/01/18 10:19:29;;;;;;;62.53;26.88;;;;;;;;;;5016384;28;20018;-68
2023/01/18 10:22:20;;;;;;;66.90;26.92;;;;;;;;;;5016557;28;20034;-68
2023/01/18 10:24:51;;;;;;;81.72;31.08;;;;;;;;;;5016328;28;20584;-68
2023/01/18 10:27:48;;;;;;;70.65;29.55;;;;;;;;;;5016436;28;20060;-68
2023/01/18 10:30:27;;;;;;;82.78;30.40;;;;;;;;;;5006455;28;20037;-68
2023/01/18 10:32:59;;;;;;;67.93;27.67;;;;;;;;;;5016161;28;20426;-68
2023/01/18 10:35:31;;;;;;;69.47;27.73;;;;;;;;;;5016204;28;20498;-68
2023/01/18 10:38:01;;;;;;;45.05;21.75;;;;;;;;;;5016139;28;20069;-68
2023/01/18 10:40:27;;;;;;;70.57;27.48;;;;;;;;;;5016314;28;20108;-68
2023/01/18 10:42:55;;;;;;;66.10;28.75;;;;;;;;;;5016090;28;20574;-68
2023/01/18 10:45:24;;;;;;;48.50;22.65;;;;;;;;;;5016136;28;20129;-68
2023/01/18 10:47:52;;;;;;;49.55;23.25;;;;;;;;;;5015747;28;20394;-68
2023/01/18 10:50:38;;;;;;;48.83;22.73;;;;;;;;;;5016001;28;20030;-68
2023/01/18 10:53:20;;;;;;;83.45;32.65;;;;;;;;;;5015346;28;20033;-68
2023/01/18 10:55:58;;;;;;;69.95;27.38;;;;;;;;;;5015830;28;20055;-68
2023/01/18 10:58:34;;;;;;;95.75;34.35;;;;;;;;;;5015836;28;20029;-68
2023/01/18 11:01:02;;;;;;;69.00;28.25;;;;;;;;;;5015439;28;20462;-68
2023/01/18 11:03:38;;;;;;;86.43;32.28;;;;;;;;;;5015840;28;20109;-68
2023/01/18 11:06:06;;;;;;;71.05;28.73;;;;;;;;;;5015300;28;20028;-68
2023/01/18 11:08:34;;;;;;;105.78;35.63;;;;;;;;;;5015678;28;20034;-68
2023/01/18 11:11:07;;;;;;;66.22;28.42;;;;;;;;;;5015455;28;20037;-68
2023/01/18 11:13:43;;;;;;;84.70;29.65;;;;;;;;;;5015551;28;20486;-68
2023/01/18 11:16:16;;;;;;;82.50;29.60;;;;;;;;;;5015134;28;20026;-68
2023/01/18 11:19:14;;;;;;;79.85;28.90;;;;;;;;;;5015457;28;20022;-68
2023/01/18 11:21:40;;;;;;;60.10;26.05;;;;;;;;;;5015334;28;20034;-68
2023/01/18 11:24:15;;;;;;;90.68;39.95;;;;;;;;;;5014723;28;20034;-68
2023/01/18 11:26:57;;;;;;;67.35;28.20;;;;;;;;;;5015183;28;20438;-68
2023/01/18 11:29:28;;;;;;;49.22;24.80;;;;;;;;;;5015099;28;20050;-68
2023/01/18 11:31:54;;;;;;;112.55;36.00;;;;;;;;;;5015152;28;20033;-68
2023/01/18 11:34:39;;;;;;;77.97;31.33;;;;;;;;;;5014934;28;20038;-68
2023/01/18 11:37:38;;;;;;;79.60;30.90;;;;;;;;;;5014859;28;20037;-68
2023/01/18 11:40:26;;;;;;;69.65;28.85;;;;;;;;;;5015039;28;20022;-68
2023/01/18 11:43:02;;;;;;;79.50;34.30;;;;;;;;;;5014816;28;20527;-68
2023/01/18 11:45:39;;;;;;;62.67;25.88;;;;;;;;;;5014853;28;20117;-68
2023/01/18 11:48:29;;;;;;;57.35;25.38;;;;;;;;;;5014848;28;20478;-68
2023/01/18 11:51:14;;;;;;;69.50;25.25;;;;;;;;;;5014999;28;20030;-68
2023/01/18 11:54:05;;;;;;;79.88;25.05;;;;;;;;;;5014965;28;20038;-68
2023/01/18 11:56:38;;;;;;;100.85;27.95;;;;;;;;;;5014774;28;20026;-68
2023/01/18 11:59:13;;;;;;;95.30;29.40;;;;;;;;;;5014383;28;20033;-68
2023/01/18 12:02:00;;;;;;;89.28;27.27;;;;;;;;;;5014564;28;20037;-70
2023/01/18 12:04:49;;;;;;;118.95;29.67;;;;;;;;;;5014594;28;20022;-67
2023/01/18 12:07:33;;;;;;;139.13;30.88;;;;;;;;;;5013255;28;20120;-67
2023/01/18 12:10:04;;;;;;;156.43;32.60;;;;;;;;;;5014416;28;20037;-68
2023/01/18 12:12:35;;;;;;;157.05;32.75;;;;;;;;;;5014527;28;20100;-67
2023/01/18 12:15:22;;;;;;;134.68;33.22;;;;;;;;;;5014088;28;20026;-68
2023/01/18 12:17:59;;;;;;;133.00;33.22;;;;;;;;;;5013104;28;20030;-67
2023/01/18 12:20:37;;;;;;;125.38;33.28;;;;;;;;;;5014365;28;20109;-67
2023/01/18 12:23:23;;;;;;;115.50;31.92;;;;;;;;;;5014110;28;20025;-67
2023/01/18 12:26:04;;;;;;;107.07;30.23;;;;;;;;;;5012205;28;20021;-67
2023/01/18 12:28:46;;;;;;;75.70;21.90;;;;;;;;;;5012439;28;20379;-67
2023/01/18 12:31:20;;;;;;;70.65;21.60;;;;;;;;;;5012837;28;20137;-67
2023/01/18 12:33:57;;;;;;;81.72;24.83;;;;;;;;;;5014193;28;20034;-67
2023/01/18 12:37:00;;;;;;;73.40;21.95;;;;;;;;;;5012732;28;20070;-67
2023/01/18 12:39:42;;;;;;;61.33;19.00;;;;;;;;;;5014090;28;20112;-68
2023/01/18 12:42:31;;;;;;;61.90;18.88;;;;;;;;;;5013763;28;20466;-67
2023/01/18 12:45:01;;;;;;;82.05;21.63;;;;;;;;;;5013711;28;20068;-67
2023/01/18 12:47:39;;;;;;;75.78;23.88;;;;;;;;;;5013684;28;20034;-66
2023/01/18 12:50:23;;;;;;;75.60;21.50;;;;;;;;;;5012931;28;20076;-67
2023/01/18 12:52:53;;;;;;;70.80;21.20;;;;;;;;;;4993721;28;20034;-67
2023/01/18 12:55:22;;;;;;;69.75;21.45;;;;;;;;;;4994044;28;20484;-67
2023/01/18 12:57:54;;;;;;;69.03;20.58;;;;;;;;;;4993750;28;20117;-67
2023/01/18 13:00:45;;;;;;;55.50;20.15;;;;;;;;;;4993661;28;20030;-67
2023/01/18 13:03:22;;;;;;;65.20;22.52;;;;;;;;;;4994167;28;20044;-67
2023/01/18 13:05:55;;;;;;;59.58;22.27;;;;;;;;;;4993947;28;20022;-67
2023/01/18 13:08:53;;;;;;;41.60;16.33;;;;;;;;;;4993880;28;20388;-67
2023/01/18 13:11:34;;;;;;;57.65;22.15;;;;;;;;;;4993709;28;20069;-67
2023/01/18 13:14:06;;;;;;;60.70;22.05;;;;;;;;;;4993618;28;20023;-67
2023/01/18 13:17:13;;;;;;;47.83;18.23;;;;;;;;;;4993794;28;20109;-70
2023/01/18 13:19:45;;;;;;;47.72;19.75;;;;;;;;;;4972084;28;20503;-67
2023/01/18 13:22:30;;;;;;;43.58;15.80;;;;;;;;;;4955735;28;20424;-67
2023/01/18 13:25:20;;;;;;;66.57;25.50;;;;;;;;;;4971476;28;20594;-67
2023/01/18 13:28:19;;;;;;;44.25;16.10;;;;;;;;;;4971867;28;20139;-67
2023/01/18 13:30:59;;;;;;;37.88;16.45;;;;;;;;;;4957666;28;20054;-67
2023/01/18 13:33:33;;;;;;;41.10;15.20;;;;;;;;;;4971801;28;20114;-68
2023/01/18 13:36:06;;;;;;;37.92;14.93;;;;;;;;;;4971435;28;20046;-68
2023/01/18 13:38:37;;;;;;;40.17;14.57;;;;;;;;;;4971579;28;20043;-68
2023/01/18 13:41:05;;;;;;;45.70;19.00;;;;;;;;;;4971565;28;20113;-68
2023/01/18 13:43:34;;;;;;;33.10;13.65;;;;;;;;;;4971745;28;20480;-69
2023/01/18 13:46:05;;;;;;;41.33;13.52;;;;;;;;;;4971540;28;20584;-68
2023/01/18 13:49:01;;;;;;;36.70;13.57;;;;;;;;;;4971667;28;20098;-68
2023/01/18 13:51:48;;;;;;;40.03;14.80;;;;;;;;;;4971654;28;20488;-69
2023/01/18 13:54:22;;;;;;;45.08;16.58;;;;;;;;;;4971368;28;20043;-68
2023/01/18 13:57:00;;;;;;;45.60;18.67;;;;;;;;;;5008070;28;20041;-69
2023/01/18 13:59:30;;;;;;;42.15;16.70;;;;;;;;;;5012740;28;20025;-69
2023/01/18 14:02:13;;;;;;;39.15;13.70;;;;;;;;;;5012673;28;20088;-69
2023/01/18 14:04:39;;;;;;;46.55;16.55;;;;;;;;;;5012170;28;20022;-68
2023/01/18 14:07:06;;;;;;;33.42;14.48;;;;;;;;;;5012661;28;20026;-69
2023/01/18 14:09:40;;;;;;;34.20;15.88;;;;;;;;;;5010106;28;20029;-68
2023/01/18 14:12:07;;;;;;;36.92;16.67;;;;;;;;;;4993043;28;20391;-69
2023/01/18 14:14:51;;;;;;;37.80;18.67;;;;;;;;;;4992971;28;20607;-68
2023/01/18 14:17:17;;;;;;;37.20;18.60;;;;;;;;;;4993078;28;20491;-68
2023/01/18 14:19:45;;;;;;;42.17;17.90;;;;;;;;;;4993009;28;20491;-68
2023/01/18 14:22:32;;;;;;;35.58;16.42;;;;;;;;;;4991269;28;20034;-68
2023/01/18 14:25:19;;;;;;;42.42;17.67;;;;;;;;;;4992479;28;20377;-68
2023/01/18 14:27:51;;;;;;;40.35;18.92;;;;;;;;;;4992720;28;20026;-68
2023/01/18 14:30:33;;;;;;;54.28;20.30;;;;;;;;;;4992732;28;20081;-68
2023/01/18 14:33:16;;;;;;;37.55;17.77;;;;;;;;;;4992706;28;20034;-68
2023/01/18 14:35:53;;;;;;;41.47;19.55;;;;;;;;;;4992572;28;20372;-68
2023/01/18 14:38:19;;;;;;;33.90;17.45;;;;;;;;;;5009323;28;20038;-68
2023/01/18 14:40:48;;;;;;;40.95;17.67;;;;;;;;;;5011888;28;20406;-68
2023/01/18 14:43:34;;;;;;;38.63;17.58;;;;;;;;;;5012533;28;20134;-68
2023/01/18 14:46:08;;;;;;;41.08;17.63;;;;;;;;;;5012448;28;20466;-68
2023/01/18 14:48:44;;;;;;;36.50;17.20;;;;;;;;;;5012215;28;20056;-68
2023/01/18 14:51:16;;;;;;;38.08;18.60;;;;;;;;;;5012229;28;20064;-68
2023/01/18 14:53:46;;;;;;;38.90;17.17;;;;;;;;;;5011934;28;20041;-68
2023/01/18 14:56:23;;;;;;;35.83;17.30;;;;;;;;;;5011820;28;20471;-68
2023/01/18 14:58:51;;;;;;;31.60;16.83;;;;;;;;;;5013497;28;20038;-68
2023/01/18 15:01:32;;;;;;;37.80;18.65;;;;;;;;;;5015497;28;20478;-68
2023/01/18 15:03:58;;;;;;;;;;;;;;;;;;5016366;28;20104;-68
2023/01/18 15:06:30;;;;;;;40.47;19.27;;;;;;;;;;5015769;28;19957;-68
2023/01/18 15:08:56;;;;;;;49.20;22.85;;;;;;;;;;5013999;28;20037;-68
2023/01/18 15:11:23;;;;;;;79.50;30.88;;;;;;;;;;5015633;28;20022;-68
2023/01/18 15:13:52;;;;;;;68.60;27.92;;;;;;;;;;5015666;28;20026;-68